sensor_id;sensor_type;location;lat;lon;timestamp;P1;durP1;ratioP1;P2;durP2;ratioP2
43226;SDS011;28839;52.404;9.808;2023-07-29T00:02:00;455.05;;;427.00;;
43226;SDS011;28839;52.404;9.808;2023-07-29T00:08:54;463.20;;;434.70;;
43226;SDS011;28839;52.404;9.808;2023-07-29T00:15:49;452.85;;;425.27;;
43226;SDS011;28839;52.404;9.808;2023-07-29T00:22:43;551.30;;;513.85;;
43226;SDS011;28839;52.404;9.808;2023-07-29T00:29:37;575.12;;;537.22;;
43226;SDS011;28839;52.404;9.808;2023-07-29T00:36:32;629.70;;;587.05;;
43226;SDS011;28839;52.404;9.808;2023-07-29T00:43:26;530.87;;;498.73;;
43226;SDS011;28839;52.404;9.808;2023-07-29T00:50:20;455.65;;;428.75;;
43226;SDS011;28839;52.404;9.808;2023-07-29T00:57:15;382.50;;;361.10;;
43226;SDS011;28839;52.404;9.808;2023-07-29T01:04:10;298.98;;;283.50;;
43226;SDS011;28839;52.404;9.808;2023-07-29T01:11:08;3.00;;;2.40;;
43226;SDS011;28839;52.404;9.808;2023-07-29T01:18:19;2.70;;;2.50;;
43226;SDS011;28839;52.404;9.808;2023-07-29T01:25:17;2.95;;;2.70;;
43226;SDS011;28839;52.404;9.808;2023-07-29T01:32:13;4.00;;;2.70;;
43226;SDS011;28839;52.404;9.808;2023-07-29T01:39:12;3.65;;;3.08;;
43226;SDS011;28839;52.404;9.808;2023-07-29T01:46:08;3.75;;;3.17;;
43226;SDS011;28839;52.404;9.808;2023-07-29T01:53:03;4.00;;;2.78;;
43226;SDS011;28839;52.404;9.808;2023-07-29T01:59:57;2.67;;;2.28;;
43226;SDS011;28839;52.404;9.808;2023-07-29T02:06:53;2.65;;;2.45;;
43226;SDS011;28839;52.404;9.808;2023-07-29T02:13:47;2.90;;;2.22;;
43226;SDS011;28839;52.404;9.808;2023-07-29T02:20:40;3.45;;;2.60;;
43226;SDS011;28839;52.404;9.808;2023-07-29T02:27:42;2.55;;;2.35;;
43226;SDS011;28839;52.404;9.808;2023-07-29T02:34:36;3.30;;;2.47;;
43226;SDS011;28839;52.404;9.808;2023-07-29T02:41:30;3.65;;;2.42;;
43226;SDS011;28839;52.404;9.808;2023-07-29T02:48:25;2.70;;;2.50;;
43226;SDS011;28839;52.404;9.808;2023-07-29T02:55:20;3.72;;;2.40;;
43226;SDS011;28839;52.404;9.808;2023-07-29T03:02:14;2.85;;;2.50;;
43226;SDS011;28839;52.404;9.808;2023-07-29T03:16:06;2.80;;;2.50;;
43226;SDS011;28839;52.404;9.808;2023-07-29T03:23:00;2.33;;;2.12;;
43226;SDS011;28839;52.404;9.808;2023-07-29T03:36:49;5.65;;;2.45;;
43226;SDS011;28839;52.404;9.808;2023-07-29T03:43:43;2.87;;;2.47;;
43226;SDS011;28839;52.404;9.808;2023-07-29T03:50:38;3.15;;;2.85;;
43226;SDS011;28839;52.404;9.808;2023-07-29T03:57:32;6.12;;;2.55;;
43226;SDS011;28839;52.404;9.808;2023-07-29T04:04:26;5.00;;;2.25;;
43226;SDS011;28839;52.404;9.808;2023-07-29T04:11:21;2.47;;;2.28;;
43226;SDS011;28839;52.404;9.808;2023-07-29T04:18:15;2.65;;;2.17;;
43226;SDS011;28839;52.404;9.808;2023-07-29T04:25:09;4.50;;;2.40;;
43226;SDS011;28839;52.404;9.808;2023-07-29T04:32:05;4.50;;;2.90;;
43226;SDS011;28839;52.404;9.808;2023-07-29T04:38:59;3.17;;;2.83;;
43226;SDS011;28839;52.404;9.808;2023-07-29T04:45:53;2.83;;;2.62;;
43226;SDS011;28839;52.404;9.808;2023-07-29T04:52:48;3.60;;;2.65;;
43226;SDS011;28839;52.404;9.808;2023-07-29T04:59:42;2.50;;;2.35;;
43226;SDS011;28839;52.404;9.808;2023-07-29T05:06:36;6.90;;;2.97;;
43226;SDS011;28839;52.404;9.808;2023-07-29T05:13:31;3.15;;;2.85;;
43226;SDS011;28839;52.404;9.808;2023-07-29T05:20:25;5.15;;;3.12;;
43226;SDS011;28839;52.404;9.808;2023-07-29T05:27:19;4.30;;;3.30;;
43226;SDS011;28839;52.404;9.808;2023-07-29T05:34:14;3.33;;;2.85;;
43226;SDS011;28839;52.404;9.808;2023-07-29T05:41:08;4.03;;;3.10;;
43226;SDS011;28839;52.404;9.808;2023-07-29T05:48:01;3.35;;;2.60;;
43226;SDS011;28839;52.404;9.808;2023-07-29T05:54:57;3.90;;;3.37;;
43226;SDS011;28839;52.404;9.808;2023-07-29T06:01:51;5.15;;;3.08;;
43226;SDS011;28839;52.404;9.808;2023-07-29T06:08:44;3.17;;;2.97;;
43226;SDS011;28839;52.404;9.808;2023-07-29T06:15:40;3.70;;;3.40;;
43226;SDS011;28839;52.404;9.808;2023-07-29T06:22:33;3.22;;;2.92;;
43226;SDS011;28839;52.404;9.808;2023-07-29T06:29:27;3.30;;;3.00;;
43226;SDS011;28839;52.404;9.808;2023-07-29T06:36:22;3.53;;;3.08;;
43226;SDS011;28839;52.404;9.808;2023-07-29T06:43:16;3.60;;;3.30;;
43226;SDS011;28839;52.404;9.808;2023-07-29T06:50:10;3.92;;;3.40;;
43226;SDS011;28839;52.404;9.808;2023-07-29T06:57:06;3.45;;;3.15;;
43226;SDS011;28839;52.404;9.808;2023-07-29T07:04:00;3.85;;;3.05;;
43226;SDS011;28839;52.404;9.808;2023-07-29T07:10:54;4.37;;;2.62;;
43226;SDS011;28839;52.404;9.808;2023-07-29T07:17:49;5.87;;;2.72;;
43226;SDS011;28839;52.404;9.808;2023-07-29T07:24:43;3.15;;;2.78;;
43226;SDS011;28839;52.404;9.808;2023-07-29T07:31:38;5.30;;;3.20;;
43226;SDS011;28839;52.404;9.808;2023-07-29T07:38:33;3.08;;;2.70;;
43226;SDS011;28839;52.404;9.808;2023-07-29T07:45:27;4.80;;;2.53;;
43226;SDS011;28839;52.404;9.808;2023-07-29T07:52:21;5.95;;;2.42;;
43226;SDS011;28839;52.404;9.808;2023-07-29T07:59:16;4.47;;;2.75;;
43226;SDS011;28839;52.404;9.808;2023-07-29T08:06:10;2.47;;;2.25;;
43226;SDS011;28839;52.404;9.808;2023-07-29T08:13:03;3.87;;;2.60;;
43226;SDS011;28839;52.404;9.808;2023-07-29T08:26:52;2.83;;;2.58;;
43226;SDS011;28839;52.404;9.808;2023-07-29T08:33:46;3.25;;;2.95;;
43226;SDS011;28839;52.404;9.808;2023-07-29T08:40:42;4.10;;;3.22;;
43226;SDS011;28839;52.404;9.808;2023-07-29T08:47:42;4.32;;;3.20;;
43226;SDS011;28839;52.404;9.808;2023-07-29T08:54:36;4.62;;;3.62;;
43226;SDS011;28839;52.404;9.808;2023-07-29T09:08:25;4.93;;;4.28;;
43226;SDS011;28839;52.404;9.808;2023-07-29T09:15:28;5.07;;;3.50;;
43226;SDS011;28839;52.404;9.808;2023-07-29T09:22:24;6.30;;;3.25;;
43226;SDS011;28839;52.404;9.808;2023-07-29T09:29:21;3.50;;;3.20;;
43226;SDS011;28839;52.404;9.808;2023-07-29T09:36:16;3.15;;;2.95;;
43226;SDS011;28839;52.404;9.808;2023-07-29T09:50:05;270.85;;;256.85;;
43226;SDS011;28839;52.404;9.808;2023-07-29T09:57:02;173.57;;;163.77;;
43226;SDS011;28839;52.404;9.808;2023-07-29T10:03:58;63.15;;;59.88;;
43226;SDS011;28839;52.404;9.808;2023-07-29T10:10:53;134.30;;;125.62;;
43226;SDS011;28839;52.404;9.808;2023-07-29T10:17:47;29.20;;;27.17;;
43226;SDS011;28839;52.404;9.808;2023-07-29T10:24:44;358.27;;;329.92;;
43226;SDS011;28839;52.404;9.808;2023-07-29T10:31:40;457.77;;;427.55;;
43226;SDS011;28839;52.404;9.808;2023-07-29T10:38:36;783.47;;;619.53;;
43226;SDS011;28839;52.404;9.808;2023-07-29T10:45:41;7.22;;;6.68;;
43226;SDS011;28839;52.404;9.808;2023-07-29T10:52:39;4.45;;;3.45;;
43226;SDS011;28839;52.404;9.808;2023-07-29T10:59:34;4.37;;;4.00;;
43226;SDS011;28839;52.404;9.808;2023-07-29T11:06:29;5.28;;;4.35;;
43226;SDS011;28839;52.404;9.808;2023-07-29T11:13:23;4.35;;;3.72;;
43226;SDS011;28839;52.404;9.808;2023-07-29T11:20:19;5.55;;;2.80;;
43226;SDS011;28839;52.404;9.808;2023-07-29T11:27:16;3.15;;;2.85;;
43226;SDS011;28839;52.404;9.808;2023-07-29T11:34:10;6.53;;;2.70;;
43226;SDS011;28839;52.404;9.808;2023-07-29T11:41:07;3.20;;;2.58;;
43226;SDS011;28839;52.404;9.808;2023-07-29T11:48:03;2.53;;;2.20;;
43226;SDS011;28839;52.404;9.808;2023-07-29T11:54:57;1.20;;;1.10;;
43226;SDS011;28839;52.404;9.808;2023-07-29T12:01:51;3.53;;;0.93;;
43226;SDS011;28839;52.404;9.808;2023-07-29T12:08:48;1.95;;;0.80;;
43226;SDS011;28839;52.404;9.808;2023-07-29T12:15:42;0.62;;;0.62;;
43226;SDS011;28839;52.404;9.808;2023-07-29T12:22:36;1.35;;;0.90;;
43226;SDS011;28839;52.404;9.808;2023-07-29T12:29:31;1.77;;;0.95;;
43226;SDS011;28839;52.404;9.808;2023-07-29T12:36:27;1.00;;;0.90;;
43226;SDS011;28839;52.404;9.808;2023-07-29T12:43:33;1.60;;;0.90;;
43226;SDS011;28839;52.404;9.808;2023-07-29T12:50:28;1.98;;;0.80;;
43226;SDS011;28839;52.404;9.808;2023-07-29T12:57:22;2.40;;;0.90;;
43226;SDS011;28839;52.404;9.808;2023-07-29T13:04:16;2.95;;;1.65;;
43226;SDS011;28839;52.404;9.808;2023-07-29T13:11:11;0.85;;;0.85;;
43226;SDS011;28839;52.404;9.808;2023-07-29T13:18:05;1.17;;;1.00;;
43226;SDS011;28839;52.404;9.808;2023-07-29T13:24:59;1.20;;;1.10;;
43226;SDS011;28839;52.404;9.808;2023-07-29T13:31:54;0.98;;;0.90;;
43226;SDS011;28839;52.404;9.808;2023-07-29T13:38:48;1.35;;;0.90;;
43226;SDS011;28839;52.404;9.808;2023-07-29T13:45:42;0.80;;;0.77;;
43226;SDS011;28839;52.404;9.808;2023-07-29T13:52:37;1.20;;;1.00;;
43226;SDS011;28839;52.404;9.808;2023-07-29T13:59:31;1.42;;;1.17;;
43226;SDS011;28839;52.404;9.808;2023-07-29T14:06:25;3.17;;;0.93;;
43226;SDS011;28839;52.404;9.808;2023-07-29T14:13:20;2.67;;;0.90;;
43226;SDS011;28839;52.404;9.808;2023-07-29T14:20:14;1.27;;;0.82;;
43226;SDS011;28839;52.404;9.808;2023-07-29T14:27:07;1.90;;;1.20;;
43226;SDS011;28839;52.404;9.808;2023-07-29T14:34:03;1.00;;;0.90;;
43226;SDS011;28839;52.404;9.808;2023-07-29T14:40:56;2.05;;;1.02;;
43226;SDS011;28839;52.404;9.808;2023-07-29T14:47:50;1.15;;;1.02;;
43226;SDS011;28839;52.404;9.808;2023-07-29T14:54:45;1.90;;;1.12;;
43226;SDS011;28839;52.404;9.808;2023-07-29T15:01:39;2.03;;;1.25;;
43226;SDS011;28839;52.404;9.808;2023-07-29T15:08:33;1.27;;;1.10;;
43226;SDS011;28839;52.404;9.808;2023-07-29T15:15:28;1.27;;;1.17;;
43226;SDS011;28839;52.404;9.808;2023-07-29T15:22:22;1.62;;;1.02;;
43226;SDS011;28839;52.404;9.808;2023-07-29T15:29:16;1.60;;;1.20;;
43226;SDS011;28839;52.404;9.808;2023-07-29T15:36:11;1.77;;;1.10;;
43226;SDS011;28839;52.404;9.808;2023-07-29T15:43:05;2.50;;;1.27;;
43226;SDS011;28839;52.404;9.808;2023-07-29T15:49:59;2.37;;;1.23;;
43226;SDS011;28839;52.404;9.808;2023-07-29T15:56:54;4.93;;;1.30;;
43226;SDS011;28839;52.404;9.808;2023-07-29T16:03:48;1.23;;;1.12;;
43226;SDS011;28839;52.404;9.808;2023-07-29T16:10:42;1.90;;;1.10;;
43226;SDS011;28839;52.404;9.808;2023-07-29T16:17:37;2.97;;;1.77;;
43226;SDS011;28839;52.404;9.808;2023-07-29T16:24:31;2.12;;;1.50;;
43226;SDS011;28839;52.404;9.808;2023-07-29T16:31:25;3.72;;;2.10;;
43226;SDS011;28839;52.404;9.808;2023-07-29T16:38:20;1.65;;;1.30;;
43226;SDS011;28839;52.404;9.808;2023-07-29T16:45:14;1.60;;;1.20;;
43226;SDS011;28839;52.404;9.808;2023-07-29T16:52:08;1.92;;;1.23;;
43226;SDS011;28839;52.404;9.808;2023-07-29T16:59:03;3.87;;;1.50;;
43226;SDS011;28839;52.404;9.808;2023-07-29T17:05:57;4.40;;;1.40;;
43226;SDS011;28839;52.404;9.808;2023-07-29T17:19:46;2.07;;;1.70;;
43226;SDS011;28839;52.404;9.808;2023-07-29T17:26:40;2.00;;;1.80;;
43226;SDS011;28839;52.404;9.808;2023-07-29T17:33:34;3.03;;;2.40;;
43226;SDS011;28839;52.404;9.808;2023-07-29T17:40:29;3.17;;;2.17;;
43226;SDS011;28839;52.404;9.808;2023-07-29T17:47:23;4.22;;;2.75;;
43226;SDS011;28839;52.404;9.808;2023-07-29T17:54:17;4.62;;;3.12;;
43226;SDS011;28839;52.404;9.808;2023-07-29T18:01:12;8.45;;;7.50;;
43226;SDS011;28839;52.404;9.808;2023-07-29T18:08:06;30.95;;;29.35;;
43226;SDS011;28839;52.404;9.808;2023-07-29T18:15:00;31.95;;;29.73;;
43226;SDS011;28839;52.404;9.808;2023-07-29T18:21:55;19.45;;;18.20;;
43226;SDS011;28839;52.404;9.808;2023-07-29T18:28:48;147.73;;;138.45;;
43226;SDS011;28839;52.404;9.808;2023-07-29T18:35:42;126.35;;;118.05;;
43226;SDS011;28839;52.404;9.808;2023-07-29T18:42:38;89.75;;;84.90;;
43226;SDS011;28839;52.404;9.808;2023-07-29T18:49:31;16.05;;;15.18;;
43226;SDS011;28839;52.404;9.808;2023-07-29T18:56:25;27.87;;;26.15;;
43226;SDS011;28839;52.404;9.808;2023-07-29T19:03:20;46.53;;;44.08;;
43226;SDS011;28839;52.404;9.808;2023-07-29T19:10:14;50.10;;;46.83;;
43226;SDS011;28839;52.404;9.808;2023-07-29T19:17:08;115.45;;;108.37;;
43226;SDS011;28839;52.404;9.808;2023-07-29T19:24:03;78.28;;;73.80;;
43226;SDS011;28839;52.404;9.808;2023-07-29T19:30:58;43.60;;;41.08;;
43226;SDS011;28839;52.404;9.808;2023-07-29T19:37:51;13.68;;;12.85;;
43226;SDS011;28839;52.404;9.808;2023-07-29T19:44:47;43.67;;;41.10;;
43226;SDS011;28839;52.404;9.808;2023-07-29T19:51:41;14.82;;;14.02;;
43226;SDS011;28839;52.404;9.808;2023-07-29T19:58:35;31.62;;;29.83;;
43226;SDS011;28839;52.404;9.808;2023-07-29T20:05:32;15.32;;;14.30;;
43226;SDS011;28839;52.404;9.808;2023-07-29T20:12:26;27.62;;;25.50;;
43226;SDS011;28839;52.404;9.808;2023-07-29T20:19:19;36.97;;;34.58;;
43226;SDS011;28839;52.404;9.808;2023-07-29T20:26:15;37.90;;;35.85;;
43226;SDS011;28839;52.404;9.808;2023-07-29T20:33:08;20.88;;;19.75;;
43226;SDS011;28839;52.404;9.808;2023-07-29T20:40:02;15.75;;;14.93;;
43226;SDS011;28839;52.404;9.808;2023-07-29T20:46:59;13.82;;;13.15;;
43226;SDS011;28839;52.404;9.808;2023-07-29T20:53:54;44.22;;;41.55;;
43226;SDS011;28839;52.404;9.808;2023-07-29T21:00:48;45.08;;;42.80;;
43226;SDS011;28839;52.404;9.808;2023-07-29T21:07:43;13.00;;;12.27;;
43226;SDS011;28839;52.404;9.808;2023-07-29T21:14:37;16.35;;;15.48;;
43226;SDS011;28839;52.404;9.808;2023-07-29T21:21:31;37.88;;;35.85;;
43226;SDS011;28839;52.404;9.808;2023-07-29T21:28:26;20.85;;;19.48;;
43226;SDS011;28839;52.404;9.808;2023-07-29T21:35:20;30.30;;;28.77;;
43226;SDS011;28839;52.404;9.808;2023-07-29T21:42:14;12.48;;;11.70;;
43226;SDS011;28839;52.404;9.808;2023-07-29T21:49:10;21.48;;;20.35;;
43226;SDS011;28839;52.404;9.808;2023-07-29T21:56:04;4.65;;;4.32;;
43226;SDS011;28839;52.404;9.808;2023-07-29T22:02:58;19.50;;;18.42;;
43226;SDS011;28839;52.404;9.808;2023-07-29T22:09:53;19.17;;;18.15;;
43226;SDS011;28839;52.404;9.808;2023-07-29T22:16:47;21.70;;;20.48;;
43226;SDS011;28839;52.404;9.808;2023-07-29T22:23:41;17.52;;;16.60;;
43226;SDS011;28839;52.404;9.808;2023-07-29T22:30:36;12.65;;;11.98;;
43226;SDS011;28839;52.404;9.808;2023-07-29T22:37:30;11.95;;;11.07;;
43226;SDS011;28839;52.404;9.808;2023-07-29T22:44:24;10.38;;;9.45;;
43226;SDS011;28839;52.404;9.808;2023-07-29T22:51:19;4.22;;;3.92;;
43226;SDS011;28839;52.404;9.808;2023-07-29T22:58:13;9.23;;;8.65;;
43226;SDS011;28839;52.404;9.808;2023-07-29T23:05:07;21.80;;;20.47;;
43226;SDS011;28839;52.404;9.808;2023-07-29T23:12:03;37.17;;;35.15;;
43226;SDS011;28839;52.404;9.808;2023-07-29T23:18:57;22.58;;;21.23;;
43226;SDS011;28839;52.404;9.808;2023-07-29T23:25:50;14.60;;;13.63;;
43226;SDS011;28839;52.404;9.808;2023-07-29T23:32:46;6.93;;;6.50;;
43226;SDS011;28839;52.404;9.808;2023-07-29T23:39:39;48.10;;;45.67;;
43226;SDS011;28839;52.404;9.808;2023-07-29T23:46:33;30.55;;;28.75;;
43226;SDS011;28839;52.404;9.808;2023-07-29T23:53:28;14.73;;;13.93;;
